Southern Illinois Airport
KMDH : now visible

Airfield :











YOU CAN JOIN US ON...

 
LOGIN :

Register | Disclaimer

   EN    FR    IT 

 









Legend :    VFR   Marginal VFR   IFR   Intensive IFR   Very Intensive IFR
Visi :
Ceiling :
>= 8 km
>= 3000ft
5 to 8 km
1000 to 3000 ft
1500m to 5 km
500 to 1000 ft
800 to 1500m
200 to 500 ft
< 800m
< 200 ft
Symbols :   Thunderstorms  Fog  Heavy snow  Heavy precipitations  Wind > 20 kt







- Airport Elevation : 411 ft
- IATA code : MDH


KMDH - Southern Illinois

CURRENT METAR :
  • 210652Z AUTO 00000KT 7SM CLR 24/24 A2994 RMK AO2 SLP132 T02440239

EXPIRED METARs :
  • 210552Z AUTO 00000KT 8SM CLR 24/24 A2994 RMK AO2 SLP132 T02440239 10317 20244 403390233 50007
  • 210452Z AUTO 00000KT 7SM CLR 25/24 A2995 RMK AO2 SLP138 T02500244

TAF N/A
KZKC FIR / North America



MET'MAP, your aeronautical weather chart ! - Copyright ORBIFLY December 2007 - Disclaimer

ORBIFLY MET'MAP TEAM :

Programming & Development : Alexandra Zaïnal
Concept & Development : Baudouin d'Aumeries
Co-Development & Prog : Marc-Olivier Méhu
Technical & hardware support : Manuel Goepfert

Contact : metmap@orbifly.com




SOURCES & CREDITS :

   NOAA       Earth
Advisory